Terminal Aerodrome Forecast
Issued by NWS Cleveland, OH

Home | Current Version | Previous Version | Text Only | Print | Product List | Glossary Off
Versions: 1 2 3 4 5 6 7 8 9 10 11 12 13 14 15 16 17 18 19 20 21 22 23 24 25 26 27 28 29 30 31 32 33

611
FTUS41 KCLE 130259 AAB
TAFCLE
TAF AMD
KCLE 130259Z 1303/1406 30015G28KT P6SM BKN040
     FM131200 27010KT 3SM -SHSN BKN030
     FM131600 25008KT 3SM -SN OVC015
     FM140300 12007KT 5SM -SN OVC010=

USA.gov is the U.S. government's official web portal to all federal, state and local government web resources and services.